createdAt,value
2023-04-28T00:01:22.421Z,23.30
2023-04-28T00:04:29.635Z,23.48
2023-04-28T00:07:31.635Z,23.55
2023-04-28T00:10:35.499Z,23.92
2023-04-28T00:13:37.984Z,22.23
2023-04-28T00:16:41.570Z,24.10
2023-04-28T00:19:43.737Z,24.80
2023-04-28T00:22:46.388Z,21.65
2023-04-28T00:25:52.528Z,21.08
2023-04-28T00:28:54.494Z,20.92
2023-04-28T00:31:56.633Z,19.90
2023-04-28T00:34:58.506Z,21.38
2023-04-28T00:38:00.451Z,29.10
2023-04-28T00:41:02.577Z,28.38
2023-04-28T00:44:04.591Z,25.95
2023-04-28T00:47:06.461Z,31.13
2023-04-28T00:50:10.448Z,23.75
2023-04-28T00:53:16.092Z,26.65
2023-04-28T00:56:18.095Z,23.42
2023-04-28T00:59:20.819Z,27.05
2023-04-28T01:02:22.948Z,17.08
2023-04-28T01:05:27.308Z,24.13
2023-04-28T01:08:34.768Z,24.27
2023-04-28T01:11:38.353Z,28.75
2023-04-28T01:14:40.616Z,26.48
2023-04-28T01:17:42.601Z,23.95
2023-04-28T01:20:44.377Z,24.48
2023-04-28T01:23:47.008Z,24.42
2023-04-28T01:26:48.746Z,28.93
2023-04-28T01:29:51.764Z,23.75
2023-04-28T01:32:53.699Z,28.00
2023-04-28T01:35:59.080Z,24.42
2023-04-28T01:39:01.078Z,21.63
2023-04-28T01:42:07.707Z,23.70
2023-04-28T01:45:10.396Z,22.02
2023-04-28T01:48:13.016Z,22.88
2023-04-28T01:51:14.810Z,27.23
2023-04-28T01:54:17.071Z,28.15
2023-04-28T01:57:19.555Z,35.63
2023-04-28T02:00:23.933Z,30.70
2023-04-28T02:03:26.279Z,30.25
2023-04-28T02:06:28.428Z,30.80
2023-04-28T02:09:30.430Z,29.52
2023-04-28T02:12:33.000Z,32.45
2023-04-28T02:15:35.399Z,31.37
2023-04-28T02:18:38.210Z,25.75
2023-04-28T02:21:41.647Z,34.42
2023-04-28T02:27:46.127Z,26.02
2023-04-28T02:30:51.046Z,24.60
2023-04-28T02:33:53.169Z,25.80
2023-04-28T02:36:56.633Z,26.27
2023-04-28T02:43:02.926Z,27.83
2023-04-28T02:46:05.211Z,26.88
2023-04-28T02:49:11.641Z,27.13
2023-04-28T02:52:13.495Z,23.40
2023-04-28T02:55:23.680Z,24.35
2023-04-28T02:58:25.642Z,25.85
2023-04-28T03:01:33.615Z,22.23
2023-04-28T03:04:35.844Z,24.70
2023-04-28T03:07:39.564Z,22.73
2023-04-28T03:10:41.691Z,22.40
2023-04-28T03:13:43.534Z,29.42
2023-04-28T03:16:45.517Z,28.00
2023-04-28T03:19:47.378Z,35.20
2023-04-28T03:22:49.468Z,33.30
2023-04-28T03:25:51.396Z,28.50
2023-04-28T03:28:53.676Z,28.40
2023-04-28T03:32:00.143Z,29.63
2023-04-28T03:35:02.148Z,27.23
2023-04-28T03:38:07.194Z,26.95
2023-04-28T03:41:09.007Z,26.88
2023-04-28T03:44:10.787Z,23.85
2023-04-28T03:47:12.698Z,27.98
2023-04-28T03:50:14.677Z,29.83
2023-04-28T03:53:17.320Z,34.70
2023-04-28T03:56:19.295Z,30.95
2023-04-28T03:59:21.208Z,30.20
2023-04-28T04:02:23.076Z,30.50
2023-04-28T04:05:25.221Z,24.50
2023-04-28T04:08:27.174Z,25.60
2023-04-28T04:11:28.967Z,25.67
2023-04-28T04:14:31.019Z,24.85
2023-04-28T04:17:33.216Z,26.15
2023-04-28T04:20:35.093Z,26.70
2023-04-28T04:23:36.859Z,28.92
2023-04-28T04:26:39.480Z,26.25
2023-04-28T04:29:42.175Z,32.88
2023-04-28T04:32:44.085Z,30.35
2023-04-28T04:35:46.102Z,29.30
2023-04-28T04:38:49.519Z,26.77
2023-04-28T04:44:57.849Z,28.25
2023-04-28T04:47:59.722Z,29.10
2023-04-28T04:51:02.472Z,30.98
2023-04-28T04:54:04.493Z,33.88
2023-04-28T04:57:07.144Z,29.88
2023-04-28T05:00:09.789Z,27.23
2023-04-28T05:03:19.106Z,25.85
2023-04-28T05:06:21.450Z,24.42
2023-04-28T05:09:25.698Z,25.60
2023-04-28T05:12:27.521Z,26.77
2023-04-28T05:15:29.879Z,23.45
2023-04-28T05:18:32.267Z,24.65
2023-04-28T05:21:35.618Z,26.55
2023-04-28T05:24:37.472Z,24.00
2023-04-28T05:27:41.066Z,29.42
2023-04-28T05:30:44.930Z,23.02
2023-04-28T05:33:46.945Z,22.00
2023-04-28T05:36:48.932Z,22.08
2023-04-28T05:39:51.440Z,24.23
2023-04-28T05:42:53.573Z,20.40
2023-04-28T05:45:55.778Z,17.98
2023-04-28T05:48:57.959Z,17.50
2023-04-28T05:52:04.372Z,17.23
2023-04-28T05:55:06.553Z,16.73
2023-04-28T05:58:09.058Z,16.25
2023-04-28T06:01:12.048Z,15.97
2023-04-28T06:04:16.169Z,18.48
2023-04-28T06:07:18.387Z,17.58
2023-04-28T06:10:21.956Z,15.75
2023-04-28T06:13:23.745Z,17.63
2023-04-28T06:16:27.195Z,16.88
2023-04-28T06:22:30.854Z,15.02
2023-04-28T06:25:32.801Z,11.02
2023-04-28T06:28:34.754Z,15.00
2023-04-28T06:31:36.624Z,16.75
2023-04-28T06:34:38.404Z,12.10
2023-04-28T06:37:40.197Z,11.23
2023-04-28T06:40:43.675Z,13.93
2023-04-28T06:43:45.474Z,13.52
2023-04-28T06:46:48.906Z,13.65
2023-04-28T06:52:52.703Z,12.48
2023-04-28T06:55:54.591Z,16.73
2023-04-28T06:58:58.886Z,11.93
2023-04-28T07:02:02.008Z,13.68
2023-04-28T07:05:05.121Z,13.25
2023-04-28T07:08:07.141Z,13.93
2023-04-28T07:11:10.540Z,13.90
2023-04-28T07:17:14.318Z,11.70
2023-04-28T07:20:16.334Z,9.95
2023-04-28T07:23:19.065Z,9.60
2023-04-28T07:26:21.569Z,9.10
2023-04-28T07:29:24.718Z,9.25
2023-04-28T07:32:26.598Z,9.10
2023-04-28T07:35:29.192Z,9.45
2023-04-28T07:38:31.129Z,8.77
2023-04-28T07:41:39.749Z,10.20
2023-04-28T07:44:42.354Z,8.65
2023-04-28T07:47:44.337Z,8.52
2023-04-28T07:50:46.668Z,8.43
2023-04-28T07:53:51.563Z,9.50
2023-04-28T07:56:53.404Z,10.15
2023-04-28T07:59:56.521Z,8.70
2023-04-28T08:02:59.380Z,8.50
2023-04-28T08:06:02.455Z,8.93
2023-04-28T08:09:06.173Z,8.88
2023-04-28T08:12:09.052Z,9.10
2023-04-28T08:15:11.348Z,9.30
2023-04-28T08:18:13.284Z,9.85
2023-04-28T08:21:15.092Z,9.68
2023-04-28T08:24:17.986Z,9.57
2023-04-28T08:27:20.088Z,9.65
2023-04-28T08:30:22.092Z,10.13
2023-04-28T08:33:24.774Z,9.40
2023-04-28T08:36:31.817Z,9.27
2023-04-28T08:39:35.217Z,9.48
2023-04-28T08:45:44.883Z,8.88
2023-04-28T08:48:46.956Z,8.70
2023-04-28T08:51:59.077Z,8.20
2023-04-28T08:55:10.368Z,7.30
2023-04-28T08:58:12.693Z,6.93
2023-04-28T09:01:14.713Z,6.68
2023-04-28T09:04:18.345Z,6.07
2023-04-28T09:07:20.837Z,5.15
2023-04-28T09:10:25.084Z,5.25
2023-04-28T09:13:31.685Z,4.05
2023-04-28T09:16:41.739Z,4.20
2023-04-28T09:19:46.151Z,4.47
2023-04-28T09:22:48.115Z,4.53
2023-04-28T09:26:07.679Z,4.68
2023-04-28T09:29:13.841Z,4.35
2023-04-28T09:32:25.188Z,4.20
2023-04-28T09:35:48.306Z,4.43
2023-04-28T09:38:50.913Z,4.00
2023-04-28T09:41:53.074Z,4.23
2023-04-28T09:44:54.948Z,4.03
2023-04-28T09:48:10.905Z,3.88
2023-04-28T09:51:21.289Z,3.50
2023-04-28T09:54:24.400Z,3.38
2023-04-28T09:57:29.518Z,3.38
2023-04-28T10:00:34.289Z,3.60
2023-04-28T10:03:37.730Z,3.58
2023-04-28T10:06:40.403Z,3.78
2023-04-28T10:09:50.694Z,3.30
2023-04-28T10:12:52.802Z,3.47
2023-04-28T10:15:55.584Z,3.47
2023-04-28T10:18:58.101Z,4.03
2023-04-28T10:22:13.666Z,4.70
2023-04-28T10:25:27.007Z,4.13
2023-04-28T10:28:29.263Z,4.10
2023-04-28T10:31:31.051Z,4.10
2023-04-28T10:34:33.950Z,3.85
2023-04-28T10:38:05.798Z,3.95
2023-04-28T10:41:34.029Z,3.58
2023-04-28T10:44:36.158Z,3.60
2023-04-28T10:48:07.994Z,3.08
2023-04-28T10:51:16.420Z,3.35
2023-04-28T10:54:20.115Z,3.40
2023-04-28T10:57:22.939Z,3.90
2023-04-28T11:00:31.839Z,4.00
2023-04-28T11:03:49.112Z,4.10
2023-04-28T11:07:13.359Z,3.53
2023-04-28T11:10:15.381Z,5.13
2023-04-28T11:13:34.809Z,3.20
2023-04-28T11:16:54.722Z,2.58
2023-04-28T11:19:59.778Z,2.75
2023-04-28T11:23:03.832Z,3.35
2023-04-28T11:26:06.032Z,3.50
2023-04-28T11:29:08.756Z,2.17
2023-04-28T11:32:11.211Z,2.33
2023-04-28T11:35:13.122Z,2.10
2023-04-28T11:38:17.255Z,2.05
2023-04-28T11:41:19.378Z,2.72
2023-04-28T11:44:23.200Z,1.70
2023-04-28T11:47:34.701Z,1.80
2023-04-28T11:50:37.492Z,1.90
2023-04-28T11:53:46.295Z,2.10
2023-04-28T11:56:48.988Z,2.17
2023-04-28T11:59:51.377Z,1.60
2023-04-28T12:02:53.823Z,1.67
2023-04-28T12:05:57.990Z,2.22
2023-04-28T12:09:05.856Z,4.20
2023-04-28T12:12:10.648Z,2.30
2023-04-28T12:15:13.490Z,3.55
2023-04-28T12:18:19.504Z,2.00
2023-04-28T12:21:22.154Z,2.15
2023-04-28T12:24:26.129Z,2.00
2023-04-28T12:27:29.143Z,2.85
2023-04-28T12:30:33.317Z,3.65
2023-04-28T12:33:39.522Z,2.08
2023-04-28T12:36:41.442Z,3.80
2023-04-28T12:39:43.455Z,2.35
2023-04-28T12:42:45.502Z,2.58
2023-04-28T12:45:47.785Z,3.25
2023-04-28T12:48:50.044Z,2.58
2023-04-28T12:51:51.845Z,3.05
2023-04-28T12:54:53.577Z,2.25
2023-04-28T12:57:55.346Z,3.60
2023-04-28T13:00:57.078Z,3.17
2023-04-28T13:03:59.636Z,3.83
2023-04-28T13:07:01.723Z,1.50
2023-04-28T13:10:03.773Z,4.13
2023-04-28T13:13:05.784Z,3.95
2023-04-28T13:16:10.717Z,2.65
2023-04-28T13:19:14.621Z,2.13
2023-04-28T13:22:17.610Z,2.10
2023-04-28T13:25:19.369Z,1.88
2023-04-28T13:28:21.148Z,1.40
2023-04-28T13:31:22.984Z,1.02
2023-04-28T13:34:24.976Z,0.93
2023-04-28T13:37:27.015Z,1.08
2023-04-28T13:40:29.232Z,1.13
2023-04-28T13:43:34.041Z,2.47
2023-04-28T13:46:37.560Z,0.80
2023-04-28T13:49:40.064Z,1.98
2023-04-28T13:52:42.689Z,1.20
2023-04-28T13:55:45.538Z,1.67
2023-04-28T13:58:48.919Z,1.08
2023-04-28T14:01:53.160Z,1.92
2023-04-28T14:04:55.969Z,3.50
2023-04-28T14:07:57.931Z,6.95
2023-04-28T14:11:04.636Z,3.75
2023-04-28T14:14:06.452Z,3.97
2023-04-28T14:17:09.535Z,3.58
2023-04-28T14:20:11.827Z,2.78
2023-04-28T14:23:15.633Z,3.60
2023-04-28T14:26:17.595Z,5.55
2023-04-28T14:29:20.994Z,4.15
2023-04-28T14:35:24.955Z,1.95
2023-04-28T14:38:27.797Z,3.67
2023-04-28T14:41:29.568Z,2.40
2023-04-28T14:44:31.597Z,2.30
2023-04-28T14:47:33.623Z,2.55
2023-04-28T14:50:35.371Z,3.15
2023-04-28T14:53:42.334Z,3.53
2023-04-28T14:56:44.644Z,1.92
2023-04-28T14:59:48.370Z,2.30
2023-04-28T15:02:53.713Z,3.00
2023-04-28T15:05:55.639Z,2.97
2023-04-28T15:08:58.381Z,3.25
2023-04-28T15:12:00.321Z,2.63
2023-04-28T15:15:02.119Z,3.47
2023-04-28T15:18:05.082Z,1.92
2023-04-28T15:21:08.564Z,1.50
2023-04-28T15:27:13.729Z,4.18
2023-04-28T15:30:16.655Z,2.00
2023-04-28T15:33:18.693Z,1.90
2023-04-28T15:36:20.994Z,1.27
2023-04-28T15:39:23.903Z,1.80
2023-04-28T15:42:26.875Z,3.03
2023-04-28T15:45:28.676Z,1.30
2023-04-28T15:48:32.153Z,1.75
2023-04-28T15:54:36.498Z,2.47
2023-04-28T15:57:38.993Z,1.20
2023-04-28T16:00:42.264Z,1.00
2023-04-28T16:03:48.437Z,1.05
2023-04-28T16:06:52.888Z,1.42
2023-04-28T16:09:54.926Z,3.05
2023-04-28T16:12:57.449Z,1.30
2023-04-28T16:15:59.841Z,1.73
2023-04-28T16:19:02.489Z,3.72
2023-04-28T16:22:04.280Z,1.05
2023-04-28T16:25:07.579Z,1.23
2023-04-28T16:28:09.549Z,1.25
2023-04-28T16:31:11.723Z,1.80
2023-04-28T16:34:13.932Z,2.08
2023-04-28T16:37:23.464Z,2.20
2023-04-28T16:40:25.473Z,1.27
2023-04-28T16:43:27.500Z,1.58
2023-04-28T16:46:29.927Z,1.23
2023-04-28T16:49:31.790Z,1.10
2023-04-28T16:52:33.716Z,1.75
2023-04-28T16:55:38.616Z,2.88
2023-04-28T16:58:40.826Z,2.03
2023-04-28T17:01:43.396Z,3.58
2023-04-28T17:04:46.012Z,2.42
2023-04-28T17:07:48.662Z,1.30
2023-04-28T17:10:50.777Z,1.10
2023-04-28T17:13:52.543Z,3.00
2023-04-28T17:16:54.926Z,1.40
2023-04-28T17:19:59.442Z,2.50
2023-04-28T17:23:01.253Z,1.17
2023-04-28T17:26:04.965Z,0.98
2023-04-28T17:29:06.841Z,1.73
2023-04-28T17:32:08.654Z,1.90
2023-04-28T17:35:10.659Z,1.58
2023-04-28T17:38:17.208Z,1.35
2023-04-28T17:41:19.850Z,1.83
2023-04-28T17:44:27.949Z,1.43
2023-04-28T17:47:29.911Z,1.10
2023-04-28T17:50:31.711Z,3.42
2023-04-28T17:53:33.473Z,1.40
2023-04-28T17:56:38.965Z,2.53
2023-04-28T17:59:42.598Z,3.22
2023-04-28T18:02:44.494Z,2.85
2023-04-28T18:05:48.039Z,1.50
2023-04-28T18:11:52.177Z,1.23
2023-04-28T18:14:55.129Z,1.10
2023-04-28T18:17:57.729Z,1.40
2023-04-28T18:21:00.852Z,0.97
2023-04-28T18:24:02.931Z,2.03
2023-04-28T18:27:05.529Z,1.80
2023-04-28T18:30:08.166Z,1.70
2023-04-28T18:33:10.358Z,1.30
2023-04-28T18:36:12.374Z,1.13
2023-04-28T18:39:15.265Z,2.95
2023-04-28T18:42:17.040Z,2.20
2023-04-28T18:45:19.072Z,2.08
2023-04-28T18:48:22.062Z,2.35
2023-04-28T18:51:25.726Z,3.08
2023-04-28T18:54:28.886Z,1.83
2023-04-28T18:57:33.325Z,1.23
2023-04-28T19:06:41.697Z,2.35
2023-04-28T19:09:53.502Z,1.45
2023-04-28T19:12:56.533Z,1.30
2023-04-28T19:15:58.366Z,2.75
2023-04-28T19:19:00.244Z,3.17
2023-04-28T19:22:03.189Z,2.38
2023-04-28T19:25:06.946Z,2.08
2023-04-28T19:28:10.933Z,2.13
2023-04-28T19:31:12.908Z,2.58
2023-04-28T19:34:16.624Z,3.25
2023-04-28T19:37:19.234Z,2.90
2023-04-28T19:40:22.127Z,3.97
2023-04-28T19:43:24.357Z,3.42
2023-04-28T19:46:26.465Z,3.35
2023-04-28T19:49:28.501Z,3.15
2023-04-28T19:52:30.329Z,3.67
2023-04-28T19:55:32.159Z,3.47
2023-04-28T19:58:33.989Z,6.03
2023-04-28T20:01:35.767Z,4.15
2023-04-28T20:04:40.645Z,4.30
2023-04-28T20:07:42.879Z,4.15
2023-04-28T20:10:45.957Z,4.25
2023-04-28T20:13:48.634Z,4.68
2023-04-28T20:16:52.250Z,4.57
2023-04-28T20:19:53.989Z,4.63
2023-04-28T20:22:56.010Z,4.10
2023-04-28T20:25:59.104Z,4.95
2023-04-28T20:29:01.748Z,4.38
2023-04-28T20:32:04.737Z,6.67
2023-04-28T20:35:09.034Z,4.85
2023-04-28T20:38:10.867Z,4.90
2023-04-28T20:41:15.156Z,6.43
2023-04-28T20:44:17.040Z,6.28
2023-04-28T20:47:21.313Z,6.05
2023-04-28T20:50:23.134Z,7.15
2023-04-28T20:53:25.028Z,8.32
2023-04-28T20:56:27.398Z,8.18
2023-04-28T20:59:32.452Z,10.07
2023-04-28T21:02:36.265Z,7.60
2023-04-28T21:05:44.160Z,10.75
2023-04-28T21:08:46.130Z,10.98
2023-04-28T21:11:48.114Z,10.02
2023-04-28T21:14:49.867Z,13.18
2023-04-28T21:17:51.756Z,12.63
2023-04-28T21:20:54.641Z,13.65
2023-04-28T21:23:56.474Z,12.77
2023-04-28T21:26:59.616Z,14.95
2023-04-28T21:30:01.631Z,15.02
2023-04-28T21:33:03.564Z,16.88
2023-04-28T21:36:07.890Z,17.25
2023-04-28T21:39:10.482Z,18.52
2023-04-28T21:42:13.981Z,18.20
2023-04-28T21:48:17.576Z,16.45
2023-04-28T21:51:19.300Z,18.63
2023-04-28T21:54:21.333Z,19.48
2023-04-28T21:57:23.330Z,21.13
2023-04-28T22:00:26.070Z,23.20
2023-04-28T22:03:36.410Z,23.17
2023-04-28T22:06:38.316Z,21.02
2023-04-28T22:09:40.103Z,24.95
2023-04-28T22:12:46.685Z,25.58
2023-04-28T22:15:48.655Z,29.00
2023-04-28T22:18:55.237Z,26.05
2023-04-28T22:21:57.877Z,30.17
2023-04-28T22:25:00.265Z,27.73
2023-04-28T22:28:02.065Z,30.50
2023-04-28T22:31:04.382Z,34.40
2023-04-28T22:34:09.868Z,33.95
2023-04-28T22:37:12.766Z,34.28
2023-04-28T22:40:14.898Z,31.85
2023-04-28T22:43:17.569Z,32.88
2023-04-28T22:46:19.423Z,33.88
2023-04-28T22:49:25.723Z,30.33
2023-04-28T22:52:27.616Z,29.10
2023-04-28T22:55:29.664Z,31.40
2023-04-28T22:58:31.380Z,31.80
2023-04-28T23:01:35.442Z,31.30
2023-04-28T23:04:39.972Z,32.20
2023-04-28T23:07:44.124Z,32.45
2023-04-28T23:10:46.417Z,29.10
2023-04-28T23:13:48.485Z,29.65
2023-04-28T23:16:50.512Z,31.00
2023-04-28T23:19:52.501Z,26.10
2023-04-28T23:22:56.691Z,30.63
2023-04-28T23:25:59.558Z,33.63
2023-04-28T23:29:01.334Z,30.00
2023-04-28T23:32:04.053Z,31.88
2023-04-28T23:35:06.764Z,34.50
2023-04-28T23:38:09.004Z,29.42
2023-04-28T23:41:10.869Z,34.38
2023-04-28T23:44:13.026Z,32.90
2023-04-28T23:47:14.895Z,35.17
2023-04-28T23:50:16.986Z,33.58
2023-04-28T23:53:19.016Z,36.13
2023-04-28T23:56:25.646Z,36.97
2023-04-28T23:59:27.512Z,39.20
